createdAt,value
2023-04-08T00:00:18.458Z,20.2
2023-04-08T00:05:19.003Z,20.2
2023-04-08T00:10:24.001Z,20.2
2023-04-08T00:15:17.996Z,20.1
2023-04-08T00:20:15.863Z,20.1
2023-04-08T00:25:15.873Z,20.1
2023-04-08T00:30:20.117Z,20.1
2023-04-08T00:35:16.028Z,20.1
2023-04-08T00:40:14.100Z,20.1
2023-04-08T00:45:14.170Z,20.1
2023-04-08T00:50:14.136Z,20
2023-04-08T00:55:13.874Z,20.1
2023-04-08T01:00:16.095Z,20
2023-04-08T01:05:18.034Z,20
2023-04-08T01:10:16.006Z,20
2023-04-08T01:15:19.973Z,20
2023-04-08T01:20:18.021Z,20
2023-04-08T01:25:21.831Z,20
2023-04-08T01:30:13.602Z,20
2023-04-08T01:35:14.594Z,19.9
2023-04-08T01:40:22.574Z,19.9
2023-04-08T01:45:22.639Z,19.9
2023-04-08T01:50:16.478Z,19.9
2023-04-08T01:55:18.611Z,19.9
2023-04-08T02:00:18.602Z,19.9
2023-04-08T02:05:14.496Z,19.9
2023-04-08T02:10:14.668Z,19.8
2023-04-08T02:15:20.733Z,19.8
2023-04-08T02:20:15.868Z,19.8
2023-04-08T02:25:15.690Z,19.8
2023-04-08T02:30:14.945Z,19.8
2023-04-08T02:35:17.815Z,19.8
2023-04-08T02:40:17.840Z,19.8
2023-04-08T02:45:15.677Z,19.8
2023-04-08T02:50:22.645Z,19.8
2023-04-08T02:55:16.554Z,19.7
2023-04-08T03:00:14.371Z,19.7
2023-04-08T03:05:18.452Z,19.7
2023-04-08T03:10:24.449Z,19.7
2023-04-08T03:15:20.312Z,19.7
2023-04-08T03:20:20.217Z,19.7
2023-04-08T03:25:16.034Z,19.7
2023-04-08T03:30:16.308Z,19.7
2023-04-08T03:35:15.700Z,19.6
2023-04-08T03:40:20.514Z,19.6
2023-04-08T03:45:14.350Z,19.6
2023-04-08T03:50:18.563Z,19.6
2023-04-08T03:55:16.607Z,19.6
2023-04-08T04:00:14.497Z,19.6
2023-04-08T04:05:19.194Z,19.6
2023-04-08T04:10:16.080Z,19.6
2023-04-08T04:15:20.339Z,19.6
2023-04-08T04:20:22.271Z,19.7
2023-04-08T04:25:24.726Z,19.8
2023-04-08T04:30:25.063Z,19.8
2023-04-08T04:35:17.906Z,19.9
2023-04-08T04:40:17.910Z,19.8
2023-04-08T04:45:13.973Z,19.8
2023-04-08T04:50:14.213Z,19.8
2023-04-08T04:55:16.398Z,19.8
2023-04-08T05:00:23.140Z,19.7
2023-04-08T05:05:20.194Z,19.7
2023-04-08T05:10:18.298Z,19.7
2023-04-08T05:15:16.493Z,19.6
2023-04-08T05:20:17.619Z,19.6
2023-04-08T05:25:15.575Z,19.6
2023-04-08T05:30:18.809Z,19.6
2023-04-08T05:35:17.619Z,19.6
2023-04-08T05:40:20.960Z,19.5
2023-04-08T05:45:14.011Z,19.5
2023-04-08T05:50:13.859Z,19.5
2023-04-08T05:55:16.073Z,19.5
2023-04-08T06:00:18.454Z,19.5
2023-04-08T06:05:15.050Z,19.4
2023-04-08T06:10:16.114Z,19.4
2023-04-08T06:15:18.174Z,19.4
2023-04-08T06:20:16.446Z,19.4
2023-04-08T06:25:22.395Z,19.4
2023-04-08T06:30:18.694Z,19.4
2023-04-08T06:35:16.669Z,19.4
2023-04-08T06:40:17.713Z,19.4
2023-04-08T06:45:16.837Z,19.4
2023-04-08T06:50:17.593Z,19.4
2023-04-08T06:55:22.354Z,19.4
2023-04-08T07:00:16.480Z,19.4
2023-04-08T07:05:16.121Z,19.4
2023-04-08T07:10:18.216Z,19.3
2023-04-08T07:15:16.340Z,19.3
2023-04-08T07:20:18.294Z,19.3
2023-04-08T07:25:16.109Z,19.4
2023-04-08T07:30:18.162Z,19.3
2023-04-08T07:35:24.265Z,19.4
2023-04-08T07:40:14.450Z,19.4
2023-04-08T07:45:16.535Z,19.4
2023-04-08T07:50:14.573Z,19.3
2023-04-08T07:55:14.598Z,19.4
2023-04-08T08:00:20.922Z,19.3
2023-04-08T08:05:22.211Z,19.3
2023-04-08T08:10:16.093Z,19.4
2023-04-08T08:15:18.293Z,19.3
2023-04-08T08:20:20.275Z,19.3
2023-04-08T08:25:20.190Z,19.3
2023-04-08T08:30:16.203Z,19.3
2023-04-08T08:35:15.954Z,19.3
2023-04-08T08:40:20.120Z,19.3
2023-04-08T08:45:14.262Z,19.3
2023-04-08T08:50:20.487Z,19.3
2023-04-08T08:56:33.818Z,19.3
2023-04-08T09:00:14.118Z,19.3
2023-04-08T09:05:18.062Z,19.3
2023-04-08T09:10:18.134Z,19.3
2023-04-08T09:15:16.156Z,19.3
2023-04-08T09:20:16.268Z,19.3
2023-04-08T09:25:18.040Z,19.3
2023-04-08T09:30:16.133Z,19.3
2023-04-08T09:35:22.168Z,19.3
2023-04-08T09:40:20.240Z,19.3
2023-04-08T09:45:22.151Z,19.4
2023-04-08T09:50:16.158Z,19.3
2023-04-08T09:55:26.033Z,19.4
2023-04-08T10:00:16.279Z,19.4
2023-04-08T10:05:20.837Z,19.4
2023-04-08T10:10:17.902Z,19.4
2023-04-08T10:15:16.581Z,19.4
2023-04-08T10:20:17.407Z,19.4
2023-04-08T10:25:14.386Z,19.4
2023-04-08T10:30:16.333Z,19.4
2023-04-08T10:35:16.469Z,19.4
2023-04-08T10:40:16.542Z,19.4
2023-04-08T10:45:18.953Z,19.4
2023-04-08T10:50:17.672Z,19.4
2023-04-08T10:55:15.504Z,19.4
2023-04-08T11:00:16.672Z,19.4
2023-04-08T11:05:16.343Z,19.4
2023-04-08T11:10:14.229Z,19.4
2023-04-08T11:15:18.289Z,19.4
2023-04-08T11:20:16.374Z,19.4
2023-04-08T11:25:14.309Z,19.4
2023-04-08T11:30:14.666Z,19.4
2023-04-08T11:35:19.737Z,19.4
2023-04-08T11:40:15.777Z,19.4
2023-04-08T11:45:17.768Z,19.4
2023-04-08T11:50:13.924Z,19.4
2023-04-08T11:55:14.993Z,19.4
2023-04-08T12:00:15.981Z,19.4
2023-04-08T12:05:14.584Z,19.4
2023-04-08T12:10:14.433Z,19.4
2023-04-08T12:15:14.626Z,19.4
2023-04-08T12:20:16.514Z,19.4
2023-04-08T12:25:20.710Z,19.4
2023-04-08T12:30:16.862Z,19.4
2023-04-08T12:35:13.608Z,19.4
2023-04-08T12:40:14.568Z,19.4
2023-04-08T12:45:15.148Z,19.5
2023-04-08T12:50:14.053Z,19.5
2023-04-08T12:55:19.781Z,19.5
2023-04-08T13:00:15.990Z,19.5
2023-04-08T13:05:17.034Z,19.5
2023-04-08T13:10:16.470Z,19.5
2023-04-08T13:15:14.594Z,19.5
2023-04-08T13:20:22.494Z,19.5
2023-04-08T13:25:14.389Z,19.5
2023-04-08T13:30:20.422Z,19.5
2023-04-08T13:35:16.245Z,19.5
2023-04-08T13:40:15.996Z,19.5
2023-04-08T13:45:18.056Z,19.5
2023-04-08T13:50:17.892Z,19.5
2023-04-08T13:55:13.655Z,19.5
2023-04-08T14:00:18.903Z,19.5
2023-04-08T14:05:14.353Z,19.5
2023-04-08T14:10:14.088Z,19.5
2023-04-08T14:15:22.287Z,19.5
2023-04-08T14:20:16.052Z,19.5
2023-04-08T14:25:15.833Z,19.5
2023-04-08T14:30:20.180Z,19.6
2023-04-08T14:35:16.012Z,19.6
2023-04-08T14:40:15.857Z,19.6
2023-04-08T14:45:14.263Z,19.6
2023-04-08T14:50:20.249Z,19.6
2023-04-08T14:55:16.233Z,19.6
2023-04-08T15:00:18.643Z,19.7
2023-04-08T15:05:22.364Z,19.7
2023-04-08T15:10:24.588Z,19.7
2023-04-08T15:15:18.583Z,19.7
2023-04-08T15:20:20.952Z,19.7
2023-04-08T15:25:15.709Z,19.8
2023-04-08T15:30:27.031Z,19.8
2023-04-08T15:35:17.810Z,19.8
2023-04-08T15:40:21.792Z,19.8
2023-04-08T15:45:15.828Z,19.8
2023-04-08T15:50:13.567Z,19.8
2023-04-08T15:55:16.501Z,19.8
2023-04-08T16:00:16.612Z,19.8
2023-04-08T16:05:20.549Z,19.8
2023-04-08T16:10:24.439Z,19.8
2023-04-08T16:15:14.361Z,19.8
2023-04-08T16:20:14.807Z,19.8
2023-04-08T16:25:15.636Z,19.8
2023-04-08T16:30:15.048Z,19.9
2023-04-08T16:35:24.124Z,19.9
2023-04-08T16:40:16.298Z,19.8
2023-04-08T16:45:16.453Z,19.9
2023-04-08T16:50:18.646Z,19.9
2023-04-08T16:55:16.640Z,19.9
2023-04-08T17:00:22.670Z,19.9
2023-04-08T17:05:15.777Z,19.8
2023-04-08T17:10:13.806Z,19.8
2023-04-08T17:15:18.333Z,19.8
2023-04-08T17:20:16.322Z,19.8
2023-04-08T17:25:16.180Z,19.8
2023-04-08T17:30:16.337Z,19.8
2023-04-08T17:35:16.241Z,19.8
2023-04-08T17:40:16.059Z,19.8
2023-04-08T17:45:24.473Z,19.8
2023-04-08T17:50:18.524Z,19.8
2023-04-08T17:55:14.447Z,19.8
2023-04-08T18:00:16.635Z,19.8
2023-04-08T18:05:18.057Z,19.8
2023-04-08T18:10:13.927Z,19.8
2023-04-08T18:15:14.160Z,19.8
2023-04-08T18:20:23.960Z,19.7
2023-04-08T18:25:19.987Z,19.7
2023-04-08T18:30:13.944Z,19.7
2023-04-08T18:35:19.748Z,19.7
2023-04-08T18:40:22.456Z,19.7
2023-04-08T18:45:24.837Z,19.6
2023-04-08T18:50:20.506Z,19.6
2023-04-08T18:55:18.395Z,19.6
2023-04-08T19:00:16.378Z,19.6
2023-04-08T19:05:15.249Z,19.6
2023-04-08T19:10:16.028Z,19.5
2023-04-08T19:15:14.116Z,19.5
2023-04-08T19:20:16.184Z,19.5
2023-04-08T19:25:20.438Z,19.5
2023-04-08T19:30:14.434Z,19.5
2023-04-08T19:35:16.499Z,19.4
2023-04-08T19:40:18.810Z,19.4
2023-04-08T19:45:13.808Z,19.4
2023-04-08T19:50:13.718Z,19.4
2023-04-08T19:55:20.197Z,19.4
2023-04-08T20:00:14.412Z,19.4
2023-04-08T20:05:22.461Z,19.4
2023-04-08T20:10:16.161Z,19.4
2023-04-08T20:15:23.287Z,19.4
2023-04-08T20:20:16.509Z,19.3
2023-04-08T20:25:16.300Z,19.3
2023-04-08T20:30:22.649Z,19.3
2023-04-08T20:35:20.842Z,19.3
2023-04-08T20:40:21.961Z,19.3
2023-04-08T20:45:19.965Z,19.3
2023-04-08T20:50:13.792Z,19.3
2023-04-08T20:55:19.612Z,19.2
2023-04-08T21:00:16.792Z,19.2
2023-04-08T21:05:23.751Z,19.3
2023-04-08T21:10:13.654Z,19.2
2023-04-08T21:15:16.425Z,19.2
2023-04-08T21:20:14.629Z,19.2
2023-04-08T21:25:20.436Z,19.2
2023-04-08T21:30:18.559Z,19.2
2023-04-08T21:35:18.625Z,19.2
2023-04-08T21:40:18.646Z,19.2
2023-04-08T21:45:16.384Z,19.2
2023-04-08T21:50:14.302Z,19.1
2023-04-08T21:55:20.270Z,19.1
2023-04-08T22:00:16.315Z,19.1
2023-04-08T22:05:18.150Z,19.1
2023-04-08T22:10:20.048Z,19.1
2023-04-08T22:15:13.857Z,19.1
2023-04-08T22:20:15.718Z,19.1
2023-04-08T22:25:16.764Z,19
2023-04-08T22:30:19.808Z,19
2023-04-08T22:35:17.905Z,19
2023-04-08T22:40:15.875Z,19
2023-04-08T22:45:15.742Z,19
2023-04-08T22:50:23.172Z,19
2023-04-08T22:55:24.061Z,19
2023-04-08T23:00:15.722Z,19
2023-04-08T23:05:19.194Z,19
2023-04-08T23:10:19.976Z,19
2023-04-08T23:15:23.948Z,19
2023-04-08T23:20:15.971Z,18.9
2023-04-08T23:25:19.873Z,18.9
2023-04-08T23:30:15.817Z,18.9
2023-04-08T23:35:15.772Z,18.9
2023-04-08T23:40:15.833Z,18.9
2023-04-08T23:45:17.817Z,18.9
2023-04-08T23:50:19.829Z,18.9
2023-04-08T23:55:15.830Z,18.9
